Crow Agency, MT

9:07 PM MST on March 02, 2015 (GMT -0700)
South Big Horn County | Change Station
CLOSE
Current Station
Airport
Location: Greybull,
Elevation: 3934 ft
Nearby Weather Stations
Active Advisory: Winter Weather Advisory

Elev 3934 ft 44.52 °N, 108.08 °W | Updated 14 minutes ago

Overcast
Overcast
31 °F
Feels Like 17 °F
N
25
Wind Variable Wind from NNW

Today
High -- | Low -- °F
--% Chance of Precip.
Yesterday
High -- | Low -- °F
Precip. -- in
6:46 AM 5:57 PM
Waxing Gibbous, 94% visible
Pressure 29.79 in
Visibility 10.0 miles
Clouds Overcast 8500 ft
Windchill 17 °F
Dew Point 17 °F
Humidity 57%
Rainfall 0.00 in
Snow Depth Not available.
UV 0 out of 12
Pollen .30 out of 12
Air Quality Not available.
Flu Activity Not available.
METAR KGEY 030353Z AUTO 33022KT 10SM OVC085 M01/M08 A2967 RMK AO2 PK WND 34027/0339 SLP086 T10061083

More Conditions Fewer Conditions

Pressure 29.79 in
Visibility 10.0 miles
Clouds Overcast 8500 ft
Windchill 17 °F
Dew Point 17 °F
Humidity 57%
Rainfall 0.00 in
Snow Depth Not available.
UV 0 out of 12
Pollen .30 out of 12
Air Quality Not available.
Flu Activity Not available.
METAR KGEY 030353Z AUTO 33022KT 10SM OVC085 M01/M08 A2967 RMK AO2 PK WND 34027/0339 SLP086 T10061083

More Conditions Fewer Conditions

10-Day Weather Forecast

Almanac

Astronomy

Mar. 02, 2015 Rise Set
Actual Time
Civil Twilight
Nautical Twilight
Astronomical Twilight
Moon
Length of Visible Light
Length of Day
Tomorrow will be .
, % of the Moon is Illuminated

Today's Extremes

State Highs State Lows

Community

WunderPhotos

Upload Photos

1,802,061 photos uploaded!

WunderBlogs® & News

Nearby

Air Quality

  Air Quality AQ Index Pollutant
Not available.

Snow Depth

Station Depth Elevation

Earthquake Activity

City Distance Mag. Time & Date
Minimum magnitude displayed is 2.5.

Coastal Water Temperatures

Place Temperature

Nearby Weather Stations

Winter Weather Advisory
Statement as of 2:51 PM MST on March 02, 2015

... Winter Weather Advisory remains in effect from 6 PM this
evening to noon MST Tuesday...

A Winter Weather Advisory for snow and blowing snow remains in
effect from 6 PM this evening to noon MST Tuesday.

* Timing... this evening through noon on Tuesday. Most of the
snowfall is expected between 10 PM and 4 am in Billings.

* Impacts... poor travel conditions due to reduced visibility and
slick or snowpacked roadways. This includes Highway 212 and
interstates 90 and 94. The cold and snow will also threaten
Young livestock.

* Winds... north at 15 to 30 mph.

* Snowfall amounts... 1 to 3 inches.

* Wind chill values... 15 to 25 below zero.




Http://weather.Gov/Billings